CheckWX is a tool to help pilots better visualize weather data.  It is not intended as a substitute for an official pre-flight weather briefing.

15:09:13 UTC

KBMI TAF
Central Illinois Regional at Bloomington-Normal Airport
Bloomington/Normal, Illinois, USA
KBMI 231214Z 2312/2412 VRB05KT P6SM SKC FM231500 13008KT P6SM SCT250 FM232300 16007KT P6SM BKN170 FM240600 17007KT P6SM OVC070 FM240800 17007KT P6SM OVC050

Mar-23@
12:00 UTC

Mar-23 @ 12:00 UTC

Mar-23@
15:00 UTC

Mar-23 @ 15:00 UTC

KBMI 231214Z 2312/2412 VRB05KT P6SM SKC

Expired

Wind
  • Variable at 5 KTS
Cloud Levels
  • Clear skies

Mar-23@
15:00 UTC

Mar-23 @ 15:00 UTC

Mar-23@
23:00 UTC

Mar-23 @ 23:00 UTC

FM231500 13008KT P6SM SCT250

From

From Standard forecast or significant change

Wind
  • 130° at 8 KTS
Cloud Levels
  • Scattered at 25,000' AGL

Mar-23@
23:00 UTC

Mar-23 @ 23:00 UTC

Mar-24@
06:00 UTC

Mar-24 @ 06:00 UTC

FM232300 16007KT P6SM BKN170

From

From Standard forecast or significant change

Wind
  • 160° at 7 KTS
Cloud Levels
  • Broken at 17,000' AGL

Mar-24@
06:00 UTC

Mar-24 @ 06:00 UTC

Mar-24@
08:00 UTC

Mar-24 @ 08:00 UTC

FM240600 17007KT P6SM OVC070

From

From Standard forecast or significant change

Wind
  • 170° at 7 KTS
Cloud Levels
  • Overcast at 7,000' AGL

Mar-24@
08:00 UTC

Mar-24 @ 08:00 UTC

Mar-24@
12:00 UTC

Mar-24 @ 12:00 UTC

FM240800 17007KT P6SM OVC050

From

From Standard forecast or significant change

Wind
  • 170° at 7 KTS
Cloud Levels
  • Overcast at 5,000' AGL